createdAt,value
2017-07-10T00:00:34.945Z,12.20
2017-07-10T00:03:02.451Z,12.50
2017-07-10T00:05:29.978Z,11.80
2017-07-10T00:07:57.558Z,12.30
2017-07-10T00:10:25.049Z,13.07
2017-07-10T00:12:52.749Z,12.90
2017-07-10T00:15:20.288Z,13.90
2017-07-10T00:17:47.839Z,13.10
2017-07-10T00:20:15.385Z,14.20
2017-07-10T00:22:43.126Z,13.70
2017-07-10T00:25:10.632Z,14.10
2017-07-10T00:27:38.239Z,14.03
2017-07-10T00:30:05.813Z,15.40
2017-07-10T00:32:33.330Z,14.30
2017-07-10T00:35:00.827Z,13.60
2017-07-10T00:37:29.296Z,13.00
2017-07-10T00:39:57.570Z,12.80
2017-07-10T00:42:25.112Z,12.57
2017-07-10T00:44:52.639Z,13.47
2017-07-10T00:47:20.919Z,11.83
2017-07-10T00:49:48.461Z,12.63
2017-07-10T00:52:16.145Z,12.63
2017-07-10T00:54:43.652Z,12.07
2017-07-10T00:57:11.146Z,11.20
2017-07-10T00:59:38.930Z,12.90
2017-07-10T01:02:06.473Z,12.73
2017-07-10T01:04:34.018Z,12.80
2017-07-10T01:07:01.557Z,13.27
2017-07-10T01:09:29.130Z,13.13
2017-07-10T01:11:56.622Z,12.43
2017-07-10T01:14:24.881Z,13.67
2017-07-10T01:16:53.169Z,12.40
2017-07-10T01:19:20.669Z,12.97
2017-07-10T01:21:48.198Z,12.90
2017-07-10T01:24:15.710Z,13.40
2017-07-10T01:26:43.240Z,14.20
2017-07-10T01:29:10.952Z,12.53
2017-07-10T01:31:39.210Z,14.27
2017-07-10T01:34:07.469Z,13.30
2017-07-10T01:36:35.049Z,12.87
2017-07-10T01:39:02.541Z,13.10
2017-07-10T01:41:30.241Z,13.93
2017-07-10T01:43:57.785Z,14.23
2017-07-10T01:46:25.329Z,12.70
2017-07-10T01:48:52.868Z,13.50
2017-07-10T01:51:20.369Z,14.03
2017-07-10T01:53:47.876Z,13.20
2017-07-10T01:56:15.669Z,13.83
2017-07-10T01:58:43.233Z,12.90
2017-07-10T02:01:10.740Z,14.77
2017-07-10T02:03:38.447Z,13.60
2017-07-10T02:06:05.967Z,14.10
2017-07-10T02:08:33.492Z,12.80
2017-07-10T02:11:01.037Z,13.83
2017-07-10T02:13:28.538Z,13.67
2017-07-10T02:15:56.034Z,13.23
2017-07-10T02:18:23.773Z,13.43
2017-07-10T02:20:51.313Z,13.20
2017-07-10T02:23:18.808Z,13.20
2017-07-10T02:25:46.501Z,14.10
2017-07-10T02:28:14.002Z,14.33
2017-07-10T02:30:42.277Z,13.63
2017-07-10T02:33:10.561Z,13.47
2017-07-10T02:35:38.081Z,15.17
2017-07-10T02:38:06.399Z,14.90
2017-07-10T02:40:34.036Z,13.70
2017-07-10T02:43:02.342Z,13.97
2017-07-10T02:45:30.034Z,14.97
2017-07-10T02:47:57.569Z,14.00
2017-07-10T02:50:25.109Z,14.00
2017-07-10T02:52:52.653Z,15.10
2017-07-10T02:55:20.202Z,14.90
2017-07-10T02:57:47.774Z,15.53
2017-07-10T03:00:15.272Z,14.60
2017-07-10T03:02:43.529Z,14.73
2017-07-10T03:05:11.821Z,14.33
2017-07-10T03:07:39.350Z,14.17
2017-07-10T03:10:06.922Z,14.47
2017-07-10T03:12:34.439Z,13.90
2017-07-10T03:15:01.984Z,14.70
2017-07-10T03:17:29.555Z,14.57
2017-07-10T03:19:57.050Z,14.73
2017-07-10T03:22:25.332Z,15.03
2017-07-10T03:24:53.076Z,14.67
2017-07-10T03:27:20.566Z,13.63
2017-07-10T03:29:48.066Z,13.37
2017-07-10T03:32:15.609Z,13.40
2017-07-10T03:34:43.134Z,13.23
2017-07-10T03:37:10.735Z,14.47
2017-07-10T03:39:38.452Z,13.50
2017-07-10T03:42:05.977Z,14.43
2017-07-10T03:44:33.566Z,13.10
2017-07-10T03:47:01.174Z,12.83
2017-07-10T03:49:28.667Z,12.53
2017-07-10T03:51:56.174Z,12.17
2017-07-10T03:54:23.673Z,12.07
2017-07-10T03:56:51.965Z,12.67
2017-07-10T03:59:19.509Z,13.33
2017-07-10T04:01:47.033Z,11.77
2017-07-10T04:04:14.565Z,12.57
2017-07-10T04:06:42.833Z,13.97
2017-07-10T04:09:11.113Z,13.00
2017-07-10T04:11:38.690Z,12.57
2017-07-10T04:14:06.226Z,13.80
2017-07-10T04:16:33.961Z,12.10
2017-07-10T04:19:01.497Z,12.80
2017-07-10T04:21:28.988Z,12.60
2017-07-10T04:23:56.581Z,12.60
2017-07-10T04:26:24.124Z,12.73
2017-07-10T04:28:51.613Z,13.00
2017-07-10T04:31:19.140Z,15.30
2017-07-10T04:33:46.644Z,13.57
2017-07-10T04:36:14.397Z,12.93
2017-07-10T04:38:41.906Z,13.63
2017-07-10T04:41:10.282Z,14.33
2017-07-10T04:43:38.060Z,13.80
2017-07-10T04:46:05.579Z,12.60
2017-07-10T04:48:33.084Z,14.53
2017-07-10T04:51:00.800Z,13.33
2017-07-10T04:53:28.297Z,14.53
2017-07-10T04:55:56.557Z,12.53
2017-07-10T04:58:25.053Z,12.30
2017-07-10T05:00:52.545Z,13.97
2017-07-10T05:03:20.142Z,14.53
2017-07-10T05:05:47.685Z,15.03
2017-07-10T05:08:15.177Z,12.80
2017-07-10T05:10:42.680Z,14.10
2017-07-10T05:13:10.224Z,13.43
2017-07-10T05:15:37.765Z,15.00
2017-07-10T05:18:05.305Z,14.20
2017-07-10T05:20:32.850Z,16.23
2017-07-10T05:23:00.390Z,14.90
2017-07-10T05:25:27.896Z,16.47
2017-07-10T05:27:56.157Z,15.30
2017-07-10T05:30:24.453Z,15.33
2017-07-10T05:32:52.197Z,15.63
2017-07-10T05:35:19.688Z,15.40
2017-07-10T05:37:47.197Z,16.80
2017-07-10T05:40:14.730Z,16.60
2017-07-10T05:42:42.385Z,16.30
2017-07-10T05:45:09.908Z,16.73
2017-07-10T05:47:37.433Z,16.57
2017-07-10T05:50:05.773Z,18.27
2017-07-10T05:52:33.373Z,18.43
2017-07-10T05:55:00.877Z,19.03
2017-07-10T05:57:29.172Z,17.50
2017-07-10T05:59:56.720Z,17.27
2017-07-10T06:02:24.401Z,16.83
2017-07-10T06:04:51.894Z,18.37
2017-07-10T06:07:19.445Z,20.70
2017-07-10T06:09:46.988Z,20.10
2017-07-10T06:12:14.532Z,21.50
2017-07-10T06:14:42.047Z,21.40
2017-07-10T06:17:10.357Z,21.33
2017-07-10T06:19:37.875Z,22.37
2017-07-10T06:22:05.441Z,22.97
2017-07-10T06:24:32.969Z,25.70
2017-07-10T06:27:00.460Z,23.50
2017-07-10T06:29:27.956Z,24.03
2017-07-10T06:31:55.449Z,23.23
2017-07-10T06:34:23.145Z,24.60
2017-07-10T06:36:50.689Z,22.00
2017-07-10T06:39:18.239Z,26.60
2017-07-10T06:41:45.777Z,24.07
2017-07-10T06:44:13.282Z,23.43
2017-07-10T06:46:41.546Z,20.63
2017-07-10T06:49:09.100Z,24.93
2017-07-10T06:51:37.373Z,24.37
2017-07-10T06:54:05.160Z,23.47
2017-07-10T06:56:32.669Z,21.17
2017-07-10T06:59:00.162Z,24.47
2017-07-10T07:01:27.757Z,23.83
2017-07-10T07:03:55.245Z,23.83
2017-07-10T07:06:22.747Z,22.10
2017-07-10T07:08:50.390Z,24.10
2017-07-10T07:11:17.933Z,24.77
2017-07-10T07:13:45.421Z,24.03
2017-07-10T07:16:12.949Z,23.70
2017-07-10T07:18:40.453Z,24.17
2017-07-10T07:21:07.952Z,23.87
2017-07-10T07:23:35.504Z,26.13
2017-07-10T07:26:03.103Z,24.50
2017-07-10T07:28:30.617Z,23.67
2017-07-10T07:30:58.903Z,23.60
2017-07-10T07:33:26.401Z,25.10
2017-07-10T07:35:54.081Z,23.03
2017-07-10T07:38:21.576Z,24.90
2017-07-10T07:40:49.070Z,25.00
2017-07-10T07:43:16.574Z,24.57
2017-07-10T07:45:44.154Z,25.57
2017-07-10T07:48:11.911Z,23.57
2017-07-10T07:50:39.410Z,23.40
2017-07-10T07:53:07.689Z,24.03
2017-07-10T07:55:35.377Z,24.93
2017-07-10T07:58:02.897Z,25.50
2017-07-10T08:00:30.444Z,25.73
2017-07-10T08:02:57.986Z,24.43
2017-07-10T08:05:25.525Z,26.60
2017-07-10T08:07:53.016Z,24.37
2017-07-10T08:10:20.504Z,25.53
2017-07-10T08:12:48.062Z,25.87
2017-07-10T08:15:15.588Z,25.63
2017-07-10T08:17:43.090Z,25.50
2017-07-10T08:20:10.593Z,26.03
2017-07-10T08:22:38.334Z,25.87
2017-07-10T08:25:05.891Z,27.80
2017-07-10T08:27:33.389Z,26.87
2017-07-10T08:30:01.661Z,27.30
2017-07-10T08:32:29.949Z,26.27
2017-07-10T08:34:57.485Z,26.20
2017-07-10T08:37:24.974Z,28.43
2017-07-10T08:39:52.465Z,28.57
2017-07-10T08:42:20.013Z,28.40
2017-07-10T08:44:47.553Z,29.47
2017-07-10T08:47:15.081Z,29.17
2017-07-10T08:49:42.649Z,29.00
2017-07-10T08:52:10.223Z,28.60
2017-07-10T08:54:37.765Z,28.97
2017-07-10T08:57:05.269Z,27.50
2017-07-10T08:59:32.769Z,29.10
2017-07-10T09:02:00.360Z,30.57
2017-07-10T09:04:27.902Z,29.23
2017-07-10T09:06:55.393Z,29.47
2017-07-10T09:09:22.988Z,28.90
2017-07-10T09:11:50.481Z,28.17
2017-07-10T09:14:17.973Z,28.50
2017-07-10T09:16:45.478Z,29.07
2017-07-10T09:19:13.305Z,30.90
2017-07-10T09:21:40.810Z,29.20
2017-07-10T09:24:08.322Z,29.30
2017-07-10T09:26:36.629Z,31.03
2017-07-10T09:29:04.133Z,29.60
2017-07-10T09:31:32.517Z,31.10
2017-07-10T09:34:00.009Z,29.27
2017-07-10T09:36:27.552Z,30.20
2017-07-10T09:38:55.196Z,29.97
2017-07-10T09:41:22.793Z,33.10
2017-07-10T09:43:50.341Z,32.87
2017-07-10T09:46:17.833Z,33.03
2017-07-10T09:48:45.334Z,32.10
2017-07-10T09:51:12.865Z,31.20
2017-07-10T09:53:40.381Z,31.70
2017-07-10T09:56:08.073Z,33.07
2017-07-10T09:58:35.812Z,33.97
2017-07-10T10:01:03.350Z,33.10
2017-07-10T10:03:30.894Z,33.10
2017-07-10T10:05:58.397Z,33.57
2017-07-10T10:08:26.693Z,31.70
2017-07-10T10:10:54.454Z,33.30
2017-07-10T10:13:21.986Z,34.87
2017-07-10T10:15:49.529Z,34.60
2017-07-10T10:18:17.074Z,33.67
2017-07-10T10:20:45.054Z,31.53
2017-07-10T10:23:12.780Z,34.17
2017-07-10T10:25:40.314Z,33.10
2017-07-10T10:28:07.814Z,32.97
2017-07-10T10:30:36.236Z,33.30
2017-07-10T10:33:03.937Z,34.60
2017-07-10T10:35:32.232Z,31.17
2017-07-10T10:37:59.722Z,29.77
2017-07-10T10:40:27.420Z,30.23
2017-07-10T10:42:54.965Z,29.40
2017-07-10T10:45:22.465Z,28.00
2017-07-10T10:47:49.986Z,27.97
2017-07-10T10:50:17.473Z,29.70
2017-07-10T10:52:45.749Z,29.60
2017-07-10T10:55:13.297Z,31.50
2017-07-10T10:57:40.844Z,30.40
2017-07-10T11:00:08.351Z,28.10
2017-07-10T11:02:36.839Z,30.33
2017-07-10T11:05:04.348Z,29.50
2017-07-10T11:07:32.625Z,27.60
2017-07-10T11:10:01.118Z,29.17
2017-07-10T11:12:28.661Z,30.60
2017-07-10T11:14:56.201Z,31.80
2017-07-10T11:17:23.757Z,27.23
2017-07-10T11:19:51.255Z,28.10
2017-07-10T11:22:18.833Z,28.53
2017-07-10T11:24:46.322Z,25.80
2017-07-10T11:27:13.922Z,30.03
2017-07-10T11:29:41.578Z,29.13
2017-07-10T11:32:09.086Z,28.57
2017-07-10T11:34:37.579Z,28.83
2017-07-10T11:37:05.189Z,28.00
2017-07-10T11:39:33.483Z,32.90
2017-07-10T11:42:01.046Z,30.30
2017-07-10T11:44:28.773Z,30.10
2017-07-10T11:46:56.270Z,27.67
2017-07-10T11:49:23.863Z,26.50
2017-07-10T11:51:51.377Z,27.40
2017-07-10T11:54:19.638Z,32.93
2017-07-10T11:56:47.896Z,27.60
2017-07-10T11:59:16.349Z,24.50
2017-07-10T12:01:44.610Z,23.97
2017-07-10T12:04:12.109Z,26.73
2017-07-10T12:06:39.741Z,24.90
2017-07-10T12:09:07.310Z,21.77
2017-07-10T12:11:35.629Z,18.60
2017-07-10T12:14:03.394Z,17.70
2017-07-10T12:16:30.962Z,15.90
2017-07-10T12:18:58.453Z,19.60
2017-07-10T12:21:26.945Z,20.90
2017-07-10T12:23:54.485Z,22.27
2017-07-10T12:26:22.029Z,21.90
2017-07-10T12:28:49.578Z,17.70
2017-07-10T12:31:17.118Z,20.40
2017-07-10T12:33:44.609Z,19.50
2017-07-10T12:36:12.130Z,21.30
2017-07-10T12:38:39.633Z,20.17
2017-07-10T12:41:07.409Z,20.37
2017-07-10T12:43:34.928Z,22.80
2017-07-10T12:46:02.451Z,25.73
2017-07-10T12:48:30.934Z,28.23
2017-07-10T12:50:58.431Z,27.00
2017-07-10T12:53:25.927Z,27.87
2017-07-10T12:55:53.443Z,25.47
2017-07-10T12:58:21.742Z,28.30
2017-07-10T13:00:49.281Z,28.97
2017-07-10T13:03:16.777Z,24.30
2017-07-10T13:05:44.268Z,24.90
2017-07-10T13:08:11.821Z,23.90
2017-07-10T13:10:39.346Z,22.30
2017-07-10T13:13:06.901Z,27.93
2017-07-10T13:15:34.641Z,26.33
2017-07-10T13:18:02.137Z,23.83
2017-07-10T13:20:29.730Z,23.97
2017-07-10T13:22:57.477Z,25.67
2017-07-10T13:25:25.016Z,24.73
2017-07-10T13:27:52.624Z,28.33
2017-07-10T13:30:20.309Z,27.20
2017-07-10T13:32:47.829Z,24.70
2017-07-10T13:35:15.336Z,20.23
2017-07-10T13:37:43.833Z,18.10
2017-07-10T13:40:11.329Z,18.77
2017-07-10T13:42:38.921Z,18.47
2017-07-10T13:45:06.637Z,17.20
2017-07-10T13:47:34.897Z,19.77
2017-07-10T13:50:03.194Z,18.33
2017-07-10T13:52:30.716Z,20.47
2017-07-10T13:54:58.281Z,21.00
2017-07-10T13:57:25.873Z,20.40
2017-07-10T13:59:53.465Z,20.57
2017-07-10T14:02:21.036Z,24.10
2017-07-10T14:04:48.537Z,23.60
2017-07-10T14:07:16.057Z,21.37
2017-07-10T14:09:43.751Z,26.40
2017-07-10T14:12:11.293Z,26.87
2017-07-10T14:14:38.857Z,23.07
2017-07-10T14:17:06.388Z,24.10
2017-07-10T14:19:33.878Z,20.97
2017-07-10T14:22:01.368Z,22.07
2017-07-10T14:24:28.897Z,21.50
2017-07-10T14:26:56.450Z,20.03
2017-07-10T14:29:23.988Z,20.10
2017-07-10T14:31:51.492Z,25.07
2017-07-10T14:34:18.979Z,25.17
2017-07-10T14:36:46.497Z,29.03
2017-07-10T14:39:15.320Z,28.00
2017-07-10T14:41:43.024Z,24.50
2017-07-10T14:44:11.968Z,20.90
2017-07-10T14:46:39.658Z,21.03
2017-07-10T14:49:07.206Z,21.70
2017-07-10T14:51:34.749Z,22.93
2017-07-10T14:54:03.237Z,25.20
2017-07-10T14:56:30.736Z,21.90
2017-07-10T14:58:59.046Z,23.60
2017-07-10T15:01:26.569Z,22.07
2017-07-10T15:03:54.109Z,21.80
2017-07-10T15:06:21.609Z,21.83
2017-07-10T15:08:50.005Z,19.83
2017-07-10T15:11:17.585Z,21.20
2017-07-10T15:13:45.307Z,24.83
2017-07-10T15:16:13.767Z,23.70
2017-07-10T15:18:41.299Z,25.57
2017-07-10T15:21:09.065Z,23.30
2017-07-10T15:23:36.566Z,21.60
2017-07-10T15:26:04.057Z,27.80
2017-07-10T15:28:31.686Z,22.60
2017-07-10T15:30:59.229Z,24.73
2017-07-10T15:33:26.726Z,23.40
2017-07-10T15:35:54.233Z,22.10
2017-07-10T15:38:21.724Z,21.30
2017-07-10T15:40:50.232Z,23.73
2017-07-10T15:43:17.841Z,23.23
2017-07-10T15:45:45.429Z,19.63
2017-07-10T15:48:13.062Z,23.67
2017-07-10T15:50:40.604Z,24.20
2017-07-10T15:53:08.145Z,25.20
2017-07-10T15:55:35.694Z,20.60
2017-07-10T15:58:03.191Z,26.40
2017-07-10T16:00:30.682Z,27.80
2017-07-10T16:02:58.217Z,21.37
2017-07-10T16:05:25.761Z,22.43
2017-07-10T16:07:53.302Z,20.07
2017-07-10T16:10:20.803Z,28.27
2017-07-10T16:12:48.310Z,23.70
2017-07-10T16:15:15.882Z,19.10
2017-07-10T16:17:43.389Z,19.27
2017-07-10T16:20:10.908Z,19.60
2017-07-10T16:22:39.308Z,21.37
2017-07-10T16:25:06.802Z,20.20
2017-07-10T16:27:34.494Z,17.80
2017-07-10T16:30:01.989Z,18.27
2017-07-10T16:32:29.581Z,19.07
2017-07-10T16:34:57.125Z,19.00
2017-07-10T16:37:24.626Z,18.43
2017-07-10T16:39:52.317Z,17.93
2017-07-10T16:42:19.857Z,22.10
2017-07-10T16:44:47.366Z,21.10
2017-07-10T16:47:15.673Z,18.37
2017-07-10T16:49:43.174Z,55.40
2017-07-10T16:52:10.680Z,34.83
2017-07-10T16:54:38.397Z,28.73
2017-07-10T16:57:05.893Z,20.70
2017-07-10T16:59:33.478Z,46.27
2017-07-10T17:02:01.030Z,22.43
2017-07-10T17:04:28.568Z,18.20
2017-07-10T17:06:56.062Z,28.37
2017-07-10T17:09:23.605Z,27.20
2017-07-10T17:11:51.236Z,54.40
2017-07-10T17:14:18.885Z,63.87
2017-07-10T17:16:46.442Z,27.27
2017-07-10T17:19:13.997Z,27.70
2017-07-10T17:21:41.526Z,16.10
2017-07-10T17:24:09.031Z,18.97
2017-07-10T17:26:37.297Z,18.77
2017-07-10T17:29:05.585Z,10.90
2017-07-10T17:31:33.108Z,13.60
2017-07-10T17:34:01.385Z,13.53
2017-07-10T17:36:28.925Z,9.77
2017-07-10T17:38:56.469Z,11.40
2017-07-10T17:41:23.965Z,11.73
2017-07-10T17:43:51.469Z,9.13
2017-07-10T17:46:19.206Z,7.30
2017-07-10T17:48:46.714Z,7.63
2017-07-10T17:51:15.019Z,8.90
2017-07-10T17:53:42.554Z,9.37
2017-07-10T17:56:10.070Z,8.97
2017-07-10T17:58:38.358Z,7.43
2017-07-10T18:01:05.869Z,13.97
2017-07-10T18:03:34.161Z,14.50
2017-07-10T18:06:01.908Z,8.80
2017-07-10T18:08:29.393Z,5.93
2017-07-10T18:10:56.886Z,6.07
2017-07-10T18:13:24.433Z,5.63
2017-07-10T18:15:51.923Z,6.27
2017-07-10T18:18:19.443Z,6.63
2017-07-10T18:20:46.941Z,9.07
2017-07-10T18:23:15.238Z,7.83
2017-07-10T18:25:42.875Z,9.40
2017-07-10T18:28:10.486Z,7.33
2017-07-10T18:30:37.945Z,7.03
2017-07-10T18:33:05.501Z,9.80
2017-07-10T18:35:33.757Z,7.20
2017-07-10T18:38:01.269Z,7.57
2017-07-10T18:40:29.529Z,8.20
2017-07-10T18:42:57.830Z,7.90
2017-07-10T18:45:25.366Z,7.80
2017-07-10T18:47:52.932Z,8.20
2017-07-10T18:50:20.429Z,7.77
2017-07-10T18:52:48.810Z,8.03
2017-07-10T18:55:16.326Z,7.70
2017-07-10T18:57:43.869Z,8.50
2017-07-10T19:00:11.414Z,8.60
2017-07-10T19:02:38.902Z,8.67
2017-07-10T19:05:06.498Z,7.67
2017-07-10T19:07:33.990Z,8.53
2017-07-10T19:10:02.501Z,8.47
2017-07-10T19:12:30.010Z,8.90
2017-07-10T19:14:58.317Z,8.70
2017-07-10T19:17:25.821Z,9.80
2017-07-10T19:19:54.153Z,9.37
2017-07-10T19:22:21.662Z,9.87
2017-07-10T19:24:49.269Z,9.80
2017-07-10T19:27:16.827Z,9.70
2017-07-10T19:29:44.349Z,10.37
2017-07-10T19:32:11.935Z,8.73
2017-07-10T19:34:39.450Z,9.90
2017-07-10T19:37:06.977Z,10.53
2017-07-10T19:39:34.526Z,11.53
2017-07-10T19:42:02.060Z,11.07
2017-07-10T19:44:29.600Z,11.53
2017-07-10T19:46:57.151Z,11.30
2017-07-10T19:49:24.663Z,11.90
2017-07-10T19:51:52.922Z,11.40
2017-07-10T19:54:21.234Z,12.10
2017-07-10T19:56:48.753Z,11.83
2017-07-10T19:59:16.278Z,11.80
2017-07-10T20:01:43.849Z,10.83
2017-07-10T20:04:12.133Z,11.63
2017-07-10T20:06:39.649Z,11.20
2017-07-10T20:09:07.913Z,11.57
2017-07-10T20:11:35.636Z,11.73
2017-07-10T20:14:03.490Z,12.10
2017-07-10T20:16:33.622Z,11.60
2017-07-10T20:19:01.326Z,10.90
2017-07-10T20:21:28.841Z,10.37
2017-07-10T20:23:56.340Z,11.30
2017-07-10T20:26:24.633Z,10.93
2017-07-10T20:28:52.180Z,10.60
2017-07-10T20:31:19.968Z,11.20
2017-07-10T20:33:47.465Z,12.90
2017-07-10T20:36:15.002Z,11.70
2017-07-10T20:38:42.840Z,11.40
2017-07-10T20:41:10.341Z,11.50
2017-07-10T20:43:37.870Z,11.90
2017-07-10T20:46:05.528Z,12.00
2017-07-10T20:48:33.049Z,12.40
2017-07-10T20:51:01.319Z,12.63
2017-07-10T20:53:28.913Z,15.13
2017-07-10T20:55:56.458Z,16.00
2017-07-10T20:58:24.009Z,16.80
2017-07-10T21:00:51.510Z,17.70
2017-07-10T21:03:19.006Z,17.87
2017-07-10T21:05:46.546Z,18.40
2017-07-10T21:08:14.083Z,19.27
2017-07-10T21:10:41.635Z,21.47
2017-07-10T21:13:09.981Z,24.10
2017-07-10T21:15:37.478Z,23.27
2017-07-10T21:18:05.067Z,23.43
2017-07-10T21:20:32.609Z,25.00
2017-07-10T21:23:00.153Z,24.27
2017-07-10T21:25:27.834Z,24.80
2017-07-10T21:27:55.366Z,22.53
2017-07-10T21:30:22.881Z,22.33
2017-07-10T21:32:50.394Z,23.47
2017-07-10T21:35:17.905Z,23.03
2017-07-10T21:37:45.413Z,24.97
2017-07-10T21:40:12.934Z,25.47
2017-07-10T21:42:42.166Z,25.23
2017-07-10T21:45:09.666Z,25.57
2017-07-10T21:47:37.177Z,26.10
2017-07-10T21:50:04.873Z,25.67
2017-07-10T21:52:32.417Z,26.03
2017-07-10T21:54:59.905Z,27.37
2017-07-10T21:57:28.189Z,25.37
2017-07-10T21:59:55.681Z,26.87
2017-07-10T22:02:23.270Z,29.20
2017-07-10T22:04:50.809Z,30.57
2017-07-10T22:07:18.394Z,26.47
2017-07-10T22:09:45.895Z,27.47
2017-07-10T22:12:13.442Z,27.40
2017-07-10T22:14:41.000Z,23.97
2017-07-10T22:17:08.498Z,24.47
2017-07-10T22:19:36.941Z,23.47
2017-07-10T22:22:04.441Z,24.57
2017-07-10T22:24:31.989Z,24.90
2017-07-10T22:26:59.488Z,24.57
2017-07-10T22:29:26.977Z,25.43
2017-07-10T22:31:54.524Z,24.30
2017-07-10T22:34:22.254Z,22.53
2017-07-10T22:36:49.804Z,21.47
2017-07-10T22:39:17.305Z,20.47
2017-07-10T22:41:45.607Z,20.50
2017-07-10T22:44:13.276Z,21.40
2017-07-10T22:46:40.833Z,19.83
2017-07-10T22:49:08.442Z,19.37
2017-07-10T22:51:35.989Z,18.90
2017-07-10T22:54:03.492Z,17.93
2017-07-10T22:56:30.997Z,16.97
2017-07-10T22:58:58.497Z,16.00
2017-07-10T23:01:25.993Z,17.20
2017-07-10T23:03:53.531Z,16.93
2017-07-10T23:06:21.277Z,18.67
2017-07-10T23:08:48.829Z,16.83
2017-07-10T23:11:16.333Z,15.90
2017-07-10T23:13:44.650Z,16.07
2017-07-10T23:16:12.165Z,15.40
2017-07-10T23:18:39.712Z,15.77
2017-07-10T23:21:07.239Z,14.90
2017-07-10T23:23:35.498Z,15.43
2017-07-10T23:26:03.053Z,14.20
2017-07-10T23:28:30.622Z,16.77
2017-07-10T23:30:58.146Z,15.57
2017-07-10T23:33:25.641Z,15.37
2017-07-10T23:35:53.231Z,15.63
2017-07-10T23:38:20.773Z,13.07
2017-07-10T23:40:48.290Z,15.70
2017-07-10T23:43:16.560Z,14.37
2017-07-10T23:45:44.069Z,14.50
2017-07-10T23:48:11.575Z,14.57
2017-07-10T23:50:39.065Z,13.90
2017-07-10T23:53:06.644Z,14.10
2017-07-10T23:55:34.231Z,14.40
2017-07-10T23:58:01.773Z,15.40
